Time;durP1;ratioP1;P1;durP2;ratioP2;P2;SDS_P1;SDS_P2;PMS_P1;PMS_P2;Temp;Humidity;BMP_temperature;BMP_pressure;BME280_temperature;BME280_humidity;BME280_pressure;Samples;Min_cycle;Max_cycle;Signal;HPM_P1;HPM_P2
2023/04/12 00:00:43;;;;;;;16.10;13.77;;;;;;;3.74;100.00;100907.34;5054136;28;20962;-52
2023/04/12 00:03:11;;;;;;;26.03;14.27;;;;;;;3.74;100.00;100905.53;5053984;28;20428;-47
2023/04/12 00:05:39;;;;;;;21.87;14.20;;;;;;;3.74;100.00;100886.25;5053933;28;20506;-52
2023/04/12 00:08:09;;;;;;;27.03;17.10;;;;;;;3.73;100.00;100887.25;5053471;28;20435;-49
2023/04/12 00:10:37;;;;;;;20.27;16.47;;;;;;;3.73;100.00;100876.69;5053910;28;20774;-50
2023/04/12 00:13:06;;;;;;;22.83;14.40;;;;;;;3.73;100.00;100887.25;5053820;28;20431;-49
2023/04/12 00:15:34;;;;;;;42.57;18.43;;;;;;;3.71;100.00;100882.09;5053445;28;20427;-53
2023/04/12 00:18:02;;;;;;;16.97;15.23;;;;;;;3.69;100.00;100881.44;5053119;28;20466;-49
2023/04/12 00:20:30;;;;;;;31.17;15.80;;;;;;;3.68;100.00;100886.84;5053464;28;20479;-49
2023/04/12 00:22:57;;;;;;;24.27;14.20;;;;;;;3.67;100.00;100885.19;5053470;28;20436;-54
2023/04/12 00:25:25;;;;;;;21.20;13.27;;;;;;;3.64;100.00;100872.31;5053552;28;20434;-49
2023/04/12 00:27:53;;;;;;;15.33;13.50;;;;;;;3.60;100.00;100866.50;5053541;28;20457;-48
2023/04/12 00:30:22;;;;;;;21.77;14.50;;;;;;;3.60;100.00;100863.03;5053113;28;20546;-48
2023/04/12 00:32:49;;;;;;;26.07;14.00;;;;;;;3.60;100.00;100855.94;5053413;28;20497;-50
2023/04/12 00:35:18;;;;;;;20.53;13.73;;;;;;;3.58;100.00;100863.19;5053509;28;20471;-51
2023/04/12 00:37:45;;;;;;;25.40;14.80;;;;;;;3.56;100.00;100857.22;5053307;28;20451;-53
2023/04/12 00:40:13;;;;;;;24.73;14.40;;;;;;;3.56;100.00;100862.47;5052871;28;20900;-47
2023/04/12 00:42:41;;;;;;;19.80;13.63;;;;;;;3.55;100.00;100860.00;5053278;28;20489;-46
2023/04/12 00:45:09;;;;;;;31.20;14.60;;;;;;;3.53;100.00;100849.59;5053479;28;20431;-51
2023/04/12 00:47:39;;;;;;;24.67;15.37;;;;;;;3.52;100.00;100853.22;5053246;28;20964;-49
2023/04/12 00:50:08;;;;;;;27.97;15.90;;;;;;;3.51;100.00;100842.81;5040375;28;21067;-48
2023/04/12 00:52:36;;;;;;;20.17;14.30;;;;;;;3.49;100.00;100842.97;5053225;28;20435;-48
2023/04/12 00:55:06;;;;;;;25.73;15.30;;;;;;;3.45;100.00;100836.34;5053065;28;20998;-50
2023/04/12 00:57:35;;;;;;;28.93;14.70;;;;;;;3.45;100.00;100835.50;5052992;28;20451;-49
2023/04/12 01:00:04;;;;;;;24.63;16.23;;;;;;;3.44;100.00;100823.28;5052488;28;20546;-52
2023/04/12 01:02:33;;;;;;;18.70;15.03;;;;;;;3.42;100.00;100823.44;5052669;28;20940;-48
2023/04/12 01:05:03;;;;;;;20.43;15.40;;;;;;;3.40;100.00;100828.06;5053078;28;20834;-48
2023/04/12 01:07:43;;;;;;;23.27;15.50;;;;;;;3.35;100.00;100823.22;5052817;28;20451;-49
2023/04/12 01:10:24;;;;;;;18.00;15.67;;;;;;;3.34;100.00;100820.75;5052539;28;20833;-51
2023/04/12 01:13:05;;;;;;;24.43;16.63;;;;;;;3.30;100.00;100828.09;5052482;28;20427;-51
2023/04/12 01:15:39;;;;;;;30.40;16.07;;;;;;;3.27;100.00;100836.31;5052809;28;20882;-51
2023/04/12 01:18:10;;;;;;;21.43;16.87;;;;;;;3.24;100.00;100825.22;5052897;28;20500;-52
2023/04/12 01:20:47;;;;;;;28.80;16.17;;;;;;;3.20;100.00;100811.50;5047610;28;20448;-49
2023/04/12 01:23:25;;;;;;;26.43;15.80;;;;;;;3.19;100.00;100817.78;5052263;28;20435;-50
2023/04/12 01:26:09;;;;;;;22.90;14.53;;;;;;;3.17;100.00;100808.34;5052516;28;20438;-49
2023/04/12 01:28:42;;;;;;;27.60;16.37;;;;;;;3.17;100.00;100803.91;5052166;28;20477;-50
2023/04/12 01:31:12;;;;;;;21.27;14.60;;;;;;;3.15;100.00;100799.75;5051896;28;20558;-48
2023/04/12 01:33:42;;;;;;;31.80;18.90;;;;;;;3.16;100.00;100789.09;5052134;28;20438;-47
2023/04/12 01:36:13;;;;;;;20.10;14.87;;;;;;;3.18;100.00;100797.66;5052163;28;20459;-49
2023/04/12 01:38:41;;;;;;;22.13;15.27;;;;;;;3.20;100.00;100793.06;5052513;28;20431;-52
2023/04/12 01:41:09;;;;;;;19.53;14.93;;;;;;;3.23;100.00;100789.28;5051624;28;20992;-50
2023/04/12 01:43:42;;;;;;;29.13;16.57;;;;;;;3.25;100.00;100782.94;5052075;28;20435;-52
2023/04/12 01:46:11;;;;;;;26.23;16.20;;;;;;;3.29;100.00;100783.44;5052030;28;20451;-49
2023/04/12 01:48:39;;;;;;;24.97;17.90;;;;;;;3.31;100.00;100774.44;5052023;28;20438;-48
2023/04/12 01:51:14;;;;;;;17.93;15.33;;;;;;;3.34;100.00;100768.81;5051500;28;21023;-50
2023/04/12 01:53:47;;;;;;;25.00;16.67;;;;;;;3.35;100.00;100767.03;5051994;28;20509;-52
2023/04/12 01:56:17;;;;;;;20.73;15.23;;;;;;;3.38;100.00;100757.97;5052018;28;20497;-47
2023/04/12 01:58:48;;;;;;;19.40;17.30;;;;;;;3.39;100.00;100752.56;5051898;28;20802;-50
2023/04/12 02:01:18;;;;;;;21.07;16.87;;;;;;;3.41;100.00;100755.03;5051342;28;20467;-50
2023/04/12 02:03:48;;;;;;;17.27;15.63;;;;;;;3.45;100.00;100746.69;5051949;28;20904;-46
2023/04/12 02:06:20;;;;;;;20.83;16.63;;;;;;;3.47;100.00;100739.47;5051900;28;20470;-47
2023/04/12 02:08:48;;;;;;;24.20;16.83;;;;;;;3.53;100.00;100736.22;5051748;28;20501;-46
2023/04/12 02:11:16;;;;;;;17.40;15.83;;;;;;;3.59;100.00;100737.41;5044036;28;20467;-51
2023/04/12 02:13:44;;;;;;;24.10;17.10;;;;;;;3.62;100.00;100735.31;5051666;28;20424;-52
2023/04/12 02:16:13;;;;;;;26.83;17.20;;;;;;;3.70;100.00;100729.28;5051385;28;21000;-47
2023/04/12 02:18:41;;;;;;;20.63;17.00;;;;;;;3.76;100.00;100720.78;5051889;28;20445;-48
2023/04/12 02:21:09;;;;;;;23.10;17.40;;;;;;;3.80;100.00;100715.03;5051096;28;20463;-48
2023/04/12 02:23:36;;;;;;;17.70;16.07;;;;;;;3.83;100.00;100722.63;5051347;28;20533;-46
2023/04/12 02:26:04;;;;;;;18.37;16.57;;;;;;;3.87;100.00;100715.25;5051447;28;20821;-48
2023/04/12 02:28:33;;;;;;;22.60;17.00;;;;;;;3.89;100.00;100708.81;5051760;28;20849;-48
2023/04/12 02:31:01;;;;;;;19.47;17.57;;;;;;;3.91;100.00;100700.78;5050989;28;20467;-51
2023/04/12 02:33:30;;;;;;;20.13;18.23;;;;;;;3.93;100.00;100698.78;5051511;28;20471;-53
2023/04/12 02:35:58;;;;;;;19.63;17.30;;;;;;;3.96;100.00;100700.28;5051363;28;20471;-50
2023/04/12 02:38:25;;;;;;;19.53;17.63;;;;;;;3.94;100.00;100689.06;5051454;28;20431;-52
2023/04/12 02:40:53;;;;;;;23.80;18.70;;;;;;;3.96;100.00;100676.53;5054117;28;20470;-46
2023/04/12 02:43:21;;;;;;;24.50;19.67;;;;;;;3.97;100.00;100665.03;5055667;28;20801;-47
2023/04/12 02:45:48;;;;;;;19.43;17.40;;;;;;;3.99;100.00;100665.69;5055548;28;20427;-48
2023/04/12 02:48:17;;;;;;;19.67;17.90;;;;;;;4.00;100.00;100662.91;5055648;28;20986;-50
2023/04/12 02:50:46;;;;;;;22.03;18.30;;;;;;;4.01;100.00;100650.50;5055769;28;20825;-50
2023/04/12 02:53:15;;;;;;;21.23;19.10;;;;;;;4.00;100.00;100652.34;5055513;28;20447;-48
2023/04/12 02:55:43;;;;;;;21.50;19.07;;;;;;;4.00;100.00;100647.06;5055730;28;20561;-49
2023/04/12 02:58:11;;;;;;;21.33;18.50;;;;;;;3.99;100.00;100639.31;5055553;28;20435;-45
2023/04/12 03:00:41;;;;;;;23.53;18.87;;;;;;;3.97;100.00;100647.38;5054870;28;20482;-47
2023/04/12 03:03:08;;;;;;;22.53;19.57;;;;;;;3.95;100.00;100638.78;5055253;28;20434;-50
2023/04/12 03:05:37;;;;;;;26.13;19.80;;;;;;;3.94;100.00;100637.16;5055140;28;20788;-53
2023/04/12 03:08:06;;;;;;;21.13;19.43;;;;;;;3.95;100.00;100637.94;5055303;28;20518;-47
2023/04/12 03:10:34;;;;;;;19.77;18.23;;;;;;;3.95;100.00;100627.41;5054889;28;20995;-47
2023/04/12 03:13:01;;;;;;;21.67;19.83;;;;;;;3.95;100.00;100630.03;5055011;28;20435;-48
2023/04/12 03:15:29;;;;;;;20.53;18.50;;;;;;;3.94;100.00;100626.59;5054966;28;20500;-47
2023/04/12 03:17:57;;;;;;;19.77;17.70;;;;;;;3.96;100.00;100611.41;5055085;28;20447;-49
2023/04/12 03:20:24;;;;;;;19.20;17.37;;;;;;;3.98;100.00;100601.53;5047431;28;20423;-47
2023/04/12 03:22:52;;;;;;;34.47;18.80;;;;;;;4.01;100.00;100603.03;5054824;28;20947;-48
2023/04/12 03:25:21;;;;;;;24.90;17.93;;;;;;;4.01;100.00;100597.75;5055100;28;20430;-47
2023/04/12 03:27:49;;;;;;;19.60;17.97;;;;;;;4.01;100.00;100587.19;5054863;28;20451;-50
2023/04/12 03:30:17;;;;;;;20.03;17.90;;;;;;;4.02;100.00;100589.69;5054779;28;20477;-53
2023/04/12 03:32:44;;;;;;;20.03;18.23;;;;;;;4.06;100.00;100584.94;5047156;28;20474;-49
2023/04/12 03:35:12;;;;;;;20.20;18.20;;;;;;;4.06;100.00;100580.44;5055052;28;20462;-50
2023/04/12 03:37:42;;;;;;;20.50;17.70;;;;;;;4.07;100.00;100594.47;5054848;28;20459;-53
2023/04/12 03:40:10;;;;;;;17.50;16.20;;;;;;;4.08;100.00;100572.38;5055087;28;20427;-52
2023/04/12 03:42:39;;;;;;;19.63;17.87;;;;;;;4.10;100.00;100567.78;5054039;28;20470;-51
2023/04/12 03:45:08;;;;;;;19.40;17.80;;;;;;;4.11;100.00;100561.50;5054525;28;20531;-47
2023/04/12 03:47:35;;;;;;;19.00;17.60;;;;;;;4.13;100.00;100556.91;5053183;28;20976;-50
2023/04/12 03:50:06;;;;;;;19.50;17.97;;;;;;;4.12;100.00;100552.63;5054088;28;20462;-48
2023/04/12 03:52:37;;;;;;;20.40;18.30;;;;;;;4.13;100.00;100544.53;5053023;28;20463;-49
2023/04/12 03:55:06;;;;;;;21.07;19.00;;;;;;;4.13;100.00;100541.06;5054205;28;20442;-47
2023/04/12 03:57:34;;;;;;;21.30;19.30;;;;;;;4.14;100.00;100537.44;5054246;28;20462;-52
2023/04/12 04:00:07;;;;;;;19.93;18.40;;;;;;;4.12;100.00;100532.31;5054648;28;20431;-45
2023/04/12 04:02:34;;;;;;;19.67;18.30;;;;;;;4.13;100.00;100530.50;5051418;28;20462;-46
2023/04/12 04:05:03;;;;;;;21.90;19.73;;;;;;;4.14;100.00;100524.25;5054334;28;20435;-48
2023/04/12 04:07:31;;;;;;;22.40;20.17;;;;;;;4.14;100.00;100514.53;5054130;28;20448;-45
2023/04/12 04:09:59;;;;;;;20.13;18.30;;;;;;;4.12;100.00;100508.56;5054233;28;20431;-48
2023/04/12 04:12:27;;;;;;;21.57;19.50;;;;;;;4.12;100.00;100505.94;5053244;28;20463;-45
2023/04/12 04:14:55;;;;;;;23.90;19.83;;;;;;;4.12;100.00;100492.72;5054000;28;20970;-45
2023/04/12 04:17:24;;;;;;;19.70;17.73;;;;;;;4.11;100.00;100485.81;5053752;28;20475;-49
2023/04/12 04:19:52;;;;;;;25.50;18.13;;;;;;;4.10;100.00;100478.88;5053802;28;20470;-45
2023/04/12 04:22:20;;;;;;;19.30;17.90;;;;;;;4.12;100.00;100474.25;5053210;28;20455;-48
2023/04/12 04:24:50;;;;;;;19.97;18.20;;;;;;;4.15;100.00;100468.66;5053683;28;20440;-45
2023/04/12 04:27:19;;;;;;;19.77;18.10;;;;;;;4.18;100.00;100463.06;5053939;28;20452;-48
2023/04/12 04:29:46;;;;;;;18.87;17.57;;;;;;;4.21;100.00;100464.56;5053786;28;20565;-47
2023/04/12 04:32:14;;;;;;;19.37;17.20;;;;;;;4.22;100.00;100464.41;5051237;28;20471;-47
2023/04/12 04:34:43;;;;;;;18.90;17.57;;;;;;;4.25;100.00;100456.16;5053662;28;20438;-48
2023/04/12 04:37:11;;;;;;;18.23;16.87;;;;;;;4.34;100.00;100464.91;5053242;28;20487;-47
2023/04/12 04:39:39;;;;;;;17.43;16.43;;;;;;;4.39;100.00;100462.63;5053758;28;20520;-52
2023/04/12 04:42:06;;;;;;;19.37;18.13;;;;;;;4.47;100.00;100460.81;5052807;28;20546;-49
2023/04/12 04:44:36;;;;;;;18.27;16.67;;;;;;;4.55;100.00;100449.41;5053456;28;20454;-52
2023/04/12 04:47:05;;;;;;;17.77;16.77;;;;;;;4.66;100.00;100445.63;5053251;28;20454;-50
2023/04/12 04:49:33;;;;;;;18.07;16.57;;;;;;;4.83;100.00;100445.44;5053220;28;20431;-49
2023/04/12 04:52:03;;;;;;;18.63;16.23;;;;;;;5.01;100.00;100443.44;5046030;28;20473;-50
2023/04/12 04:54:31;;;;;;;17.47;16.00;;;;;;;5.09;100.00;100442.59;5053357;28;20434;-53
2023/04/12 04:57:00;;;;;;;18.33;16.93;;;;;;;5.12;100.00;100433.50;5053138;28;20479;-48
2023/04/12 04:59:28;;;;;;;16.50;15.40;;;;;;;5.11;100.00;100427.38;5053097;28;20431;-52
2023/04/12 05:01:55;;;;;;;17.03;15.93;;;;;;;5.11;100.00;100423.94;5051339;28;20431;-50
2023/04/12 05:04:23;;;;;;;16.70;15.63;;;;;;;5.13;100.00;100424.59;5042895;28;20451;-49
2023/04/12 05:06:52;;;;;;;17.17;15.90;;;;;;;5.13;100.00;100422.78;5052893;28;21038;-50
2023/04/12 05:09:21;;;;;;;17.47;16.47;;;;;;;5.14;100.00;100420.97;5053096;28;20427;-53
2023/04/12 05:11:49;;;;;;;17.47;16.30;;;;;;;5.16;100.00;100418.97;5052836;28;20786;-47
2023/04/12 05:14:17;;;;;;;18.87;17.43;;;;;;;5.21;100.00;100417.44;5052366;28;20900;-55
2023/04/12 05:16:44;;;;;;;16.97;15.77;;;;;;;5.25;100.00;100420.59;5052447;28;21010;-47
2023/04/12 05:19:12;;;;;;;16.27;15.47;;;;;;;5.39;100.00;100419.88;5052923;28;20809;-49
2023/04/12 05:21:40;;;;;;;17.73;16.83;;;;;;;5.77;100.00;100408.44;5052640;28;20431;-48
2023/04/12 05:24:08;;;;;;;16.03;14.70;;;;;;;5.77;100.00;100404.97;5052078;28;20471;-49
2023/04/12 05:26:37;;;;;;;16.27;15.23;;;;;;;5.73;100.00;100396.59;5052608;28;20447;-52
2023/04/12 05:29:05;;;;;;;16.13;14.47;;;;;;;5.74;100.00;100394.75;5052453;28;20431;-50
2023/04/12 05:31:33;;;;;;;15.90;15.00;;;;;;;5.73;100.00;100390.47;5052208;28;20424;-49
2023/04/12 05:34:01;;;;;;;16.30;14.77;;;;;;;6.36;100.00;100390.25;5052111;28;20463;-50
2023/04/12 05:36:28;;;;;;;15.60;14.80;;;;;;;7.28;100.00;100383.69;5052359;28;20486;-50
2023/04/12 05:38:56;;;;;;;14.97;14.27;;;;;;;7.85;100.00;100363.38;5052617;28;20866;-47
2023/04/12 05:41:24;;;;;;;14.30;13.67;;;;;;;7.99;100.00;100356.34;5052031;28;20431;-52
2023/04/12 05:43:53;;;;;;;15.17;14.33;;;;;;;8.03;100.00;100353.16;5051652;28;20459;-45
2023/04/12 05:46:21;;;;;;;15.67;14.80;;;;;;;8.97;100.00;100346.53;5051977;28;20447;-52
2023/04/12 05:48:49;;;;;;;15.40;14.13;;;;;;;9.53;100.00;100339.22;5052318;28;20443;-51
2023/04/12 05:51:17;;;;;;;13.37;12.50;;;;;;;9.88;100.00;100337.31;5052043;28;20470;-48
2023/04/12 05:53:57;;;;;;;12.97;12.37;;;;;;;10.55;100.00;100340.66;5051688;28;20538;-54
2023/04/12 05:56:24;;;;;;;14.73;13.60;;;;;;;11.71;100.00;100327.44;5051881;28;20476;-54
2023/04/12 05:58:54;;;;;;;14.17;13.27;;;;;;;12.08;100.00;100324.72;5052002;28;20944;-53
2023/04/12 06:01:23;;;;;;;12.73;11.97;;;;;;;12.42;96.42;100314.59;5051961;28;20431;-51
2023/04/12 06:03:51;;;;;;;13.63;13.03;;;;;;;13.13;92.73;100312.28;5051565;28;20459;-50
2023/04/12 06:06:19;;;;;;;12.53;11.90;;;;;;;13.76;86.55;100307.34;5051837;28;20885;-53
2023/04/12 06:08:47;;;;;;;13.90;12.73;;;;;;;14.05;78.68;100301.13;5052360;28;20771;-53
2023/04/12 06:11:15;;;;;;;12.20;11.50;;;;;;;14.47;75.80;100307.28;5051729;28;20461;-56
2023/04/12 06:13:42;;;;;;;11.27;10.67;;;;;;;14.87;74.12;100304.72;5051400;28;20513;-55
2023/04/12 06:16:12;;;;;;;10.30;9.70;;;;;;;14.93;66.76;100293.06;5051651;28;20463;-48
2023/04/12 06:18:40;;;;;;;10.37;9.73;;;;;;;15.52;63.59;100293.75;5051852;28;20446;-48
2023/04/12 06:21:07;;;;;;;9.93;9.20;;;;;;;15.65;65.54;100290.78;5051515;28;20477;-51
2023/04/12 06:23:35;;;;;;;9.20;8.60;;;;;;;15.87;62.44;100289.03;5050877;28;20883;-50
2023/04/12 06:26:03;;;;;;;8.73;8.10;;;;;;;16.10;62.45;100286.19;5051673;28;20451;-50
2023/04/12 06:28:31;;;;;;;7.90;7.60;;;;;;;15.93;57.42;100283.50;5051785;28;20426;-49
2023/04/12 06:30:59;;;;;;;8.83;8.13;;;;;;;15.23;59.95;100276.75;5051688;28;20441;-46
2023/04/12 06:33:28;;;;;;;9.03;8.47;;;;;;;14.45;60.22;100268.34;5050966;28;20458;-48
2023/04/12 06:35:55;;;;;;;8.57;7.97;;;;;;;13.66;62.52;100253.47;5051316;28;20797;-49
2023/04/12 06:38:23;;;;;;;9.00;8.40;;;;;;;12.97;65.90;100249.41;5051482;28;20517;-46
2023/04/12 06:40:52;;;;;;;9.10;8.40;;;;;;;12.76;70.69;100248.00;5051621;28;20427;-52
2023/04/12 06:43:21;;;;;;;8.03;7.53;;;;;;;13.52;69.24;100249.34;5050848;28;20513;-48
2023/04/12 06:45:49;;;;;;;7.70;7.10;;;;;;;13.80;66.09;100245.00;5051414;28;20461;-52
2023/04/12 06:48:17;;;;;;;8.03;7.53;;;;;;;14.24;62.98;100240.19;5051495;28;20449;-48
2023/04/12 06:50:47;;;;;;;8.20;7.70;;;;;;;14.05;61.10;100239.47;5051285;28;20438;-51
2023/04/12 06:53:14;;;;;;;8.90;8.40;;;;;;;13.39;61.36;100233.47;5050676;28;20466;-51
2023/04/12 06:55:42;;;;;;;8.10;7.50;;;;;;;12.96;63.77;100239.72;5051091;28;21011;-48
2023/04/12 06:58:09;;;;;;;8.53;7.93;;;;;;;13.03;66.53;100236.97;5051324;28;20471;-50
2023/04/12 07:00:37;;;;;;;6.90;6.40;;;;;;;13.26;65.48;100235.25;5051221;28;20427;-47
2023/04/12 07:03:05;;;;;;;7.20;6.80;;;;;;;13.50;63.71;100236.19;5025698;28;20513;-47
2023/04/12 07:05:33;;;;;;;7.20;6.60;;;;;;;13.53;62.37;100240.28;5051196;28;20435;-48
2023/04/12 07:08:02;;;;;;;6.30;6.00;;;;;;;14.18;66.67;100227.72;5051366;28;20454;-50
2023/04/12 07:10:30;;;;;;;7.10;6.60;;;;;;;14.39;59.17;100213.75;5051321;28;20431;-49
2023/04/12 07:13:02;;;;;;;7.00;6.50;;;;;;;14.19;58.15;100207.88;5050676;28;20534;-49
2023/04/12 07:15:29;;;;;;;6.50;6.10;;;;;;;13.97;59.04;100214.88;5051064;28;20853;-50
2023/04/12 07:17:57;;;;;;;6.77;6.40;;;;;;;13.59;57.39;100201.88;5051153;28;20482;-52
2023/04/12 07:20:25;;;;;;;6.67;6.27;;;;;;;13.36;59.45;100215.97;5051303;28;20435;-47
2023/04/12 07:22:52;;;;;;;6.83;6.30;;;;;;;13.18;59.70;100210.66;5050567;28;20463;-50
2023/04/12 07:25:21;;;;;;;7.73;6.93;;;;;;;12.91;62.68;100209.34;5051322;28;20431;-50
2023/04/12 07:27:49;;;;;;;7.13;6.53;;;;;;;13.04;64.32;100215.34;5054737;28;20454;-50
2023/04/12 07:30:18;;;;;;;6.30;6.00;;;;;;;12.70;61.36;100202.59;5054633;28;20431;-46
2023/04/12 07:32:46;;;;;;;6.47;6.17;;;;;;;12.71;62.16;100207.72;5052019;28;20532;-48
2023/04/12 07:35:15;;;;;;;6.03;5.53;;;;;;;12.67;66.33;100205.69;5054845;28;20426;-48
2023/04/12 07:37:43;;;;;;;6.10;5.60;;;;;;;12.23;64.43;100197.94;5054461;28;21034;-52
2023/04/12 07:40:11;;;;;;;6.50;5.90;;;;;;;12.19;65.96;100197.56;5054699;28;20441;-50
2023/04/12 07:42:40;;;;;;;6.97;6.37;;;;;;;12.24;66.98;100197.75;5053687;28;20513;-45
2023/04/12 07:45:08;;;;;;;8.13;6.60;;;;;;;12.39;67.55;100192.03;5054587;28;20435;-49
2023/04/12 07:47:36;;;;;;;6.40;6.10;;;;;;;12.48;67.54;100183.50;5054576;28;20447;-50
2023/04/12 07:50:04;;;;;;;6.00;5.70;;;;;;;12.18;65.89;100186.03;5054307;28;20933;-50
2023/04/12 07:52:32;;;;;;;6.83;5.80;;;;;;;12.27;68.51;100178.59;5051180;28;20427;-47
2023/04/12 07:55:01;;;;;;;6.30;5.90;;;;;;;12.09;70.23;100176.69;5053280;28;20451;-55
2023/04/12 07:57:29;;;;;;;6.30;5.80;;;;;;;12.02;69.49;100162.56;5054017;28;20486;-50
2023/04/12 07:59:58;;;;;;;6.30;5.90;;;;;;;12.02;67.03;100159.06;5054451;28;20450;-48
2023/04/12 08:02:26;;;;;;;7.47;6.20;;;;;;;11.97;67.91;100161.59;5054162;28;20446;-55
2023/04/12 08:04:54;;;;;;;6.07;5.57;;;;;;;12.00;70.69;100153.16;5045878;28;20483;-50
2023/04/12 08:07:22;;;;;;;6.50;6.13;;;;;;;12.00;67.97;100145.13;5053967;28;20542;-49
2023/04/12 08:09:50;;;;;;;6.57;6.03;;;;;;;11.77;68.90;100132.38;5053945;28;20439;-50
2023/04/12 08:12:20;;;;;;;6.80;6.20;;;;;;;11.53;70.31;100144.66;5053795;28;20442;-48
2023/04/12 08:14:47;;;;;;;7.20;6.20;;;;;;;11.36;70.41;100124.88;5053545;28;20463;-47
2023/04/12 08:17:16;;;;;;;7.00;6.40;;;;;;;11.35;73.27;100122.44;5053659;28;20992;-46
2023/04/12 08:19:44;;;;;;;7.33;6.93;;;;;;;11.41;73.96;100124.22;5053873;28;20966;-48
2023/04/12 08:22:11;;;;;;;7.73;6.90;;;;;;;11.39;75.84;100129.78;5053552;28;20442;-50
2023/04/12 08:24:40;;;;;;;7.00;5.97;;;;;;;11.25;75.24;100114.06;5053411;28;20458;-51
2023/04/12 08:27:08;;;;;;;5.80;5.50;;;;;;;11.17;77.51;100117.00;5053743;28;20999;-50
2023/04/12 08:29:35;;;;;;;5.97;5.47;;;;;;;11.10;77.74;100117.03;5053702;28;20430;-52
2023/04/12 08:32:04;;;;;;;6.70;5.30;;;;;;;11.24;78.61;100105.25;5053171;28;20435;-51
2023/04/12 08:34:33;;;;;;;5.80;5.40;;;;;;;11.48;79.58;100115.13;5052070;28;20996;-50
2023/04/12 08:37:01;;;;;;;6.70;6.20;;;;;;;11.35;79.95;100106.41;5052448;28;20462;-48
2023/04/12 08:39:28;;;;;;;6.03;5.50;;;;;;;11.55;79.72;100091.03;5053528;28;20482;-51
2023/04/12 08:41:57;;;;;;;6.23;5.73;;;;;;;11.53;78.35;100091.25;5053401;28;20534;-53
2023/04/12 08:44:36;;;;;;;5.93;5.50;;;;;;;11.66;77.17;100087.66;5052870;28;21031;-49
2023/04/12 08:47:05;;;;;;;7.90;5.90;;;;;;;11.76;75.53;100076.50;5053426;28;20443;-53
2023/04/12 08:49:35;;;;;;;6.03;5.53;;;;;;;12.14;76.25;100063.75;5053146;28;20435;-50
2023/04/12 08:52:05;;;;;;;6.00;5.50;;;;;;;12.30;72.54;100068.53;5053331;28;20431;-47
2023/04/12 08:54:33;;;;;;;7.47;7.00;;;;;;;12.19;71.51;100059.38;5052950;28;20463;-52
2023/04/12 08:57:03;;;;;;;7.33;6.90;;;;;;;12.25;72.72;100060.34;5053051;28;20969;-50
2023/04/12 08:59:36;;;;;;;6.50;6.10;;;;;;;12.20;71.75;100061.03;5053211;28;20566;-53
2023/04/12 09:02:04;;;;;;;6.50;5.90;;;;;;;12.32;74.99;100052.25;5053143;28;20434;-56
2023/04/12 09:04:32;;;;;;;5.90;5.40;;;;;;;12.22;74.89;100055.44;5042044;28;20887;-50
2023/04/12 09:07:01;;;;;;;5.77;5.17;;;;;;;12.10;74.06;100043.84;5053060;28;20448;-53
2023/04/12 09:09:42;;;;;;;6.63;5.37;;;;;;;12.16;75.97;100037.63;5052870;28;20431;-48
2023/04/12 09:12:11;;;;;;;11.80;5.50;;;;;;;11.93;73.56;100040.16;5052591;28;20569;-49
2023/04/12 09:14:42;;;;;;;5.53;5.23;;;;;;;11.90;76.01;100025.38;5052561;28;20463;-52
2023/04/12 09:17:22;;;;;;;5.67;5.33;;;;;;;11.91;76.15;100027.03;5052659;28;20463;-52
2023/04/12 09:19:50;;;;;;;10.33;5.30;;;;;;;11.66;73.56;100011.03;5052998;28;20528;-52
2023/04/12 09:22:19;;;;;;;6.13;5.73;;;;;;;11.73;76.21;100013.66;5052651;28;20426;-53
2023/04/12 09:24:49;;;;;;;11.03;5.47;;;;;;;11.86;78.67;100018.84;5052116;28;20960;-49
2023/04/12 09:27:19;;;;;;;6.43;5.83;;;;;;;11.94;75.88;100007.06;5052725;28;20519;-54
2023/04/12 09:29:50;;;;;;;5.63;5.13;;;;;;;12.16;75.47;100010.91;5052657;28;20434;-50
2023/04/12 09:32:26;;;;;;;5.73;5.10;;;;;;;12.30;75.50;100008.88;5052381;28;20486;-51
2023/04/12 09:35:00;;;;;;;5.37;4.87;;;;;;;12.47;77.05;100002.69;5052166;28;20455;-51
2023/04/12 09:37:29;;;;;;;5.10;3.93;;;;;;;12.42;73.47;99994.53;5052162;28;20455;-54
2023/04/12 09:40:00;;;;;;;5.13;4.83;;;;;;;12.53;75.61;99999.09;5052407;28;20482;-49
2023/04/12 09:42:28;;;;;;;7.07;5.40;;;;;;;12.51;75.87;99989.69;5052191;28;20427;-55
2023/04/12 09:45:01;;;;;;;5.03;4.53;;;;;;;12.42;76.27;99994.53;5051711;28;20585;-50
2023/04/12 09:47:39;;;;;;;4.90;4.50;;;;;;;12.48;78.29;99988.28;5052163;28;20809;-50
2023/04/12 09:50:08;;;;;;;5.03;4.60;;;;;;;12.41;77.67;99992.06;5051859;28;20514;-49
2023/04/12 09:52:39;;;;;;;6.10;5.80;;;;;;;12.39;79.78;100000.34;5052008;28;20450;-51
2023/04/12 09:55:09;;;;;;;5.73;5.40;;;;;;;12.44;81.63;99989.78;5051759;28;20454;-49
2023/04/12 09:57:40;;;;;;;7.20;4.43;;;;;;;12.58;82.96;99971.66;5051783;28;21037;-50
2023/04/12 10:00:11;;;;;;;5.00;4.63;;;;;;;12.47;80.31;99967.94;5051929;28;20909;-52
2023/04/12 10:02:42;;;;;;;5.77;4.93;;;;;;;12.53;79.78;99961.66;5051610;28;20463;-49
2023/04/12 10:05:13;;;;;;;5.90;4.40;;;;;;;12.36;75.60;99963.34;5051623;28;20478;-52
2023/04/12 10:07:44;;;;;;;6.73;5.50;;;;;;;12.46;77.24;99968.13;5051738;28;20483;-50
2023/04/12 10:10:12;;;;;;;5.23;4.83;;;;;;;12.34;79.11;99969.94;5051772;28;21015;-49
2023/04/12 10:12:41;;;;;;;6.20;5.60;;;;;;;12.35;78.99;99964.38;5051426;28;20434;-48
2023/04/12 10:15:13;;;;;;;5.27;4.77;;;;;;;12.36;80.72;99954.50;5051474;28;20517;-51
2023/04/12 10:17:44;;;;;;;6.23;5.03;;;;;;;12.29;80.07;99946.59;5051572;28;20513;-49
2023/04/12 10:20:12;;;;;;;5.30;4.80;;;;;;;12.32;80.43;99950.66;5051661;28;20994;-47
2023/04/12 10:22:43;;;;;;;4.90;4.60;;;;;;;12.40;79.79;99942.31;5051529;28;20929;-52
2023/04/12 10:25:12;;;;;;;5.13;4.73;;;;;;;12.42;79.11;99934.88;5050957;28;20482;-48
2023/04/12 10:27:42;;;;;;;5.83;5.40;;;;;;;12.44;78.31;99928.25;5051707;28;20447;-53
2023/04/12 10:30:28;;;;;;;5.47;5.00;;;;;;;12.33;80.90;99934.41;5051712;28;20502;-49
2023/04/12 10:33:15;;;;;;;5.57;5.20;;;;;;;12.24;78.81;99940.28;5051452;28;20427;-50
2023/04/12 10:36:02;;;;;;;4.93;4.73;;;;;;;12.06;78.19;99933.13;5046295;28;20498;-47
2023/04/12 10:38:46;;;;;;;5.10;4.60;;;;;;;11.98;79.76;99933.41;5051679;28;20450;-48
2023/04/12 10:41:15;;;;;;;5.93;5.43;;;;;;;11.86;81.22;99917.31;5050826;28;21162;-53
2023/04/12 10:43:45;;;;;;;7.07;5.57;;;;;;;11.86;78.58;99921.84;5051288;28;20428;-53
2023/04/12 10:46:49;;;;;;;8.30;4.57;;;;;;;11.76;77.43;99925.06;5050872;28;20470;-49
2023/04/12 10:49:19;;;;;;;5.13;4.83;;;;;;;11.68;77.85;99923.47;5049889;28;20531;-49
2023/04/12 10:52:13;;;;;;;5.13;4.70;;;;;;;11.66;78.69;99922.88;5051232;28;20432;-53
2023/04/12 10:54:43;;;;;;;6.90;4.23;;;;;;;11.63;80.27;99912.66;5051087;28;20505;-49
2023/04/12 10:57:42;;;;;;;5.50;5.00;;;;;;;11.67;82.49;99921.03;5051463;28;20888;-47
2023/04/12 11:00:11;;;;;;;6.43;4.80;;;;;;;11.72;81.19;99912.38;5017681;28;20515;-48
2023/04/12 11:03:08;;;;;;;9.50;4.93;;;;;;;11.72;80.22;99923.06;5054980;28;20427;-48
2023/04/12 11:06:05;;;;;;;5.27;4.93;;;;;;;11.70;82.19;99909.94;5048869;28;20451;-45
2023/04/12 11:08:55;;;;;;;5.40;4.90;;;;;;;11.45;85.68;99914.50;5028729;28;20526;-51
2023/04/12 11:11:26;;;;;;;5.33;4.93;;;;;;;11.50;93.84;99925.31;5055105;28;20439;-44
2023/04/12 11:13:55;;;;;;;5.77;4.97;;;;;;;11.50;95.78;99915.47;5055184;28;20470;-51
2023/04/12 11:16:23;;;;;;;5.20;4.90;;;;;;;11.57;98.47;99926.06;5054554;28;20814;-49
2023/04/12 11:18:53;;;;;;;5.27;5.03;;;;;;;11.41;96.49;99916.78;5055082;28;20798;-51
2023/04/12 11:21:22;;;;;;;5.47;5.00;;;;;;;11.44;96.29;99919.03;5054843;28;20534;-56
2023/04/12 11:23:51;;;;;;;5.83;5.50;;;;;;;11.42;99.91;99918.44;5055172;28;20431;-53
2023/04/12 11:26:20;;;;;;;5.30;4.90;;;;;;;11.36;100.00;99907.81;5054496;28;20467;-54
2023/04/12 11:28:52;;;;;;;5.70;5.40;;;;;;;11.28;100.00;99905.44;5054933;28;20435;-48